METAR Data
IDs: Format: Raw Decoded Include TAF

Data at: 2149 UTC 18 Apr 2021

EBFS 182125Z AUTO 35008KT 9999 NCD 07/03 Q1021 BLU